sensor_id;sensor_type;location;lat;lon;timestamp;pressure;altitude;pressure_sealevel;temperature;humidity
78123;BME280;67376;44.802;10.332;2023-06-04T00:00:23;101041.28;;;24.97;52.57
78123;BME280;67376;44.802;10.332;2023-06-04T00:02:48;101045.69;;;24.98;52.34
78123;BME280;67376;44.802;10.332;2023-06-04T00:05:14;101040.22;;;24.98;52.05
78123;BME280;67376;44.802;10.332;2023-06-04T00:07:39;101048.41;;;24.98;52.20
78123;BME280;67376;44.802;10.332;2023-06-04T00:10:05;101045.94;;;24.97;51.84
78123;BME280;67376;44.802;10.332;2023-06-04T00:12:31;101042.38;;;24.96;52.19
78123;BME280;67376;44.802;10.332;2023-06-04T00:14:56;101041.56;;;24.96;52.21
78123;BME280;67376;44.802;10.332;2023-06-04T00:17:21;101032.50;;;24.95;51.66
78123;BME280;67376;44.802;10.332;2023-06-04T00:19:47;101037.16;;;24.95;52.12
78123;BME280;67376;44.802;10.332;2023-06-04T00:22:12;101025.66;;;24.93;52.73
78123;BME280;67376;44.802;10.332;2023-06-04T00:24:38;101031.38;;;24.91;51.77
78123;BME280;67376;44.802;10.332;2023-06-04T00:27:06;101032.19;;;24.92;52.40
78123;BME280;67376;44.802;10.332;2023-06-04T00:29:32;101036.84;;;24.91;51.98
78123;BME280;67376;44.802;10.332;2023-06-04T00:31:57;101033.84;;;24.93;52.78
78123;BME280;67376;44.802;10.332;2023-06-04T00:34:23;101031.13;;;24.93;51.99
78123;BME280;67376;44.802;10.332;2023-06-04T00:36:48;101037.41;;;24.93;51.94
78123;BME280;67376;44.802;10.332;2023-06-04T00:39:13;101042.88;;;24.93;52.04
78123;BME280;67376;44.802;10.332;2023-06-04T00:41:39;101042.03;;;24.93;51.75
78123;BME280;67376;44.802;10.332;2023-06-04T00:44:04;101035.75;;;24.92;52.29
78123;BME280;67376;44.802;10.332;2023-06-04T00:46:31;101035.50;;;24.94;52.72
78123;BME280;67376;44.802;10.332;2023-06-04T00:48:57;101033.84;;;24.93;52.52
78123;BME280;67376;44.802;10.332;2023-06-04T00:51:22;101034.94;;;24.92;52.00
78123;BME280;67376;44.802;10.332;2023-06-04T00:53:49;101025.91;;;24.91;51.73
78123;BME280;67376;44.802;10.332;2023-06-04T00:56:15;101029.47;;;24.92;52.03
78123;BME280;67376;44.802;10.332;2023-06-04T00:58:41;101025.66;;;24.93;51.79
78123;BME280;67376;44.802;10.332;2023-06-04T01:01:15;101033.28;;;24.91;52.53
78123;BME280;67376;44.802;10.332;2023-06-04T01:03:47;101033.28;;;24.91;52.56
78123;BME280;67376;44.802;10.332;2023-06-04T01:08:58;101030.56;;;24.91;51.72
78123;BME280;67376;44.802;10.332;2023-06-04T01:11:36;101033.28;;;24.91;51.78
78123;BME280;67376;44.802;10.332;2023-06-04T01:14:05;101019.63;;;24.91;51.82
78123;BME280;67376;44.802;10.332;2023-06-04T01:16:45;101018.81;;;24.90;52.24
78123;BME280;67376;44.802;10.332;2023-06-04T01:22:11;101019.63;;;24.91;51.36
78123;BME280;67376;44.802;10.332;2023-06-04T01:24:53;101019.63;;;24.91;52.42
78123;BME280;67376;44.802;10.332;2023-06-04T01:27:21;101016.91;;;24.91;51.90
78123;BME280;67376;44.802;10.332;2023-06-04T01:29:47;101019.63;;;24.91;51.68
78123;BME280;67376;44.802;10.332;2023-06-04T01:32:15;101021.53;;;24.90;52.16
78123;BME280;67376;44.802;10.332;2023-06-04T01:34:45;101014.97;;;24.91;51.80
78123;BME280;67376;44.802;10.332;2023-06-04T01:37:10;101017.16;;;24.89;52.08
78123;BME280;67376;44.802;10.332;2023-06-04T01:39:36;101016.06;;;24.90;52.58
78123;BME280;67376;44.802;10.332;2023-06-04T01:42:02;101019.63;;;24.91;52.51
78123;BME280;67376;44.802;10.332;2023-06-04T01:44:27;101024.25;;;24.90;51.37
78123;BME280;67376;44.802;10.332;2023-06-04T01:46:53;101016.91;;;24.91;51.58
78123;BME280;67376;44.802;10.332;2023-06-04T01:49:18;101014.41;;;24.89;52.55
78123;BME280;67376;44.802;10.332;2023-06-04T01:51:43;101010.88;;;24.89;51.93
78123;BME280;67376;44.802;10.332;2023-06-04T01:54:09;101008.13;;;24.89;52.63
78123;BME280;67376;44.802;10.332;2023-06-04T01:56:34;101005.41;;;24.89;52.14
78123;BME280;67376;44.802;10.332;2023-06-04T01:58:59;101021.78;;;24.89;51.59
78123;BME280;67376;44.802;10.332;2023-06-04T02:01:26;101007.31;;;24.88;51.81
78123;BME280;67376;44.802;10.332;2023-06-04T02:03:52;101006.47;;;24.88;52.05
78123;BME280;67376;44.802;10.332;2023-06-04T02:06:17;101006.47;;;24.88;51.93
78123;BME280;67376;44.802;10.332;2023-06-04T02:08:43;101001.03;;;24.88;51.76
78123;BME280;67376;44.802;10.332;2023-06-04T02:11:08;101000.19;;;24.87;51.66
78123;BME280;67376;44.802;10.332;2023-06-04T02:13:34;100993.09;;;24.86;51.51
78123;BME280;67376;44.802;10.332;2023-06-04T02:16:00;100991.44;;;24.85;52.69
78123;BME280;67376;44.802;10.332;2023-06-04T02:18:25;100996.66;;;24.87;52.16
78123;BME280;67376;44.802;10.332;2023-06-04T02:20:51;100999.38;;;24.87;51.88
78123;BME280;67376;44.802;10.332;2023-06-04T02:23:18;100996.06;;;24.85;51.71
78123;BME280;67376;44.802;10.332;2023-06-04T02:25:45;101004.84;;;24.87;52.59
78123;BME280;67376;44.802;10.332;2023-06-04T02:28:10;101004.00;;;24.86;52.10
78123;BME280;67376;44.802;10.332;2023-06-04T02:30:36;101002.66;;;24.84;52.33
78123;BME280;67376;44.802;10.332;2023-06-04T02:33:01;100998.81;;;24.85;52.12
78123;BME280;67376;44.802;10.332;2023-06-04T02:35:28;100991.44;;;24.85;52.11
78123;BME280;67376;44.802;10.332;2023-06-04T02:37:54;100994.16;;;24.85;52.63
78123;BME280;67376;44.802;10.332;2023-06-04T02:40:21;100987.34;;;24.83;51.82
78123;BME280;67376;44.802;10.332;2023-06-04T02:42:47;100987.06;;;24.84;52.61
78123;BME280;67376;44.802;10.332;2023-06-04T02:45:12;100987.88;;;24.85;51.69
78123;BME280;67376;44.802;10.332;2023-06-04T02:47:37;100986.25;;;24.84;52.46
78123;BME280;67376;44.802;10.332;2023-06-04T02:50:03;100991.72;;;24.84;52.50
78123;BME280;67376;44.802;10.332;2023-06-04T02:52:29;100997.97;;;24.84;52.29
78123;BME280;67376;44.802;10.332;2023-06-04T02:54:56;100999.09;;;24.83;52.09
78123;BME280;67376;44.802;10.332;2023-06-04T02:57:21;101003.44;;;24.84;51.94
78123;BME280;67376;44.802;10.332;2023-06-04T02:59:46;101008.13;;;24.84;51.82
78123;BME280;67376;44.802;10.332;2023-06-04T03:02:12;101005.66;;;24.82;52.37
78123;BME280;67376;44.802;10.332;2023-06-04T03:04:37;101007.56;;;24.82;52.11
78123;BME280;67376;44.802;10.332;2023-06-04T03:07:04;101006.72;;;24.81;52.29
78123;BME280;67376;44.802;10.332;2023-06-04T03:09:30;101008.63;;;24.81;51.92
78123;BME280;67376;44.802;10.332;2023-06-04T03:12:02;101007.81;;;24.80;51.03
78123;BME280;67376;44.802;10.332;2023-06-04T03:14:28;101007.81;;;24.80;50.88
78123;BME280;67376;44.802;10.332;2023-06-04T03:17:00;101011.63;;;24.79;51.44
78123;BME280;67376;44.802;10.332;2023-06-04T03:19:37;101015.19;;;24.80;51.39
78123;BME280;67376;44.802;10.332;2023-06-04T03:22:03;101019.81;;;24.79;51.35
78123;BME280;67376;44.802;10.332;2023-06-04T03:24:32;101025.28;;;24.79;51.41
78123;BME280;67376;44.802;10.332;2023-06-04T03:26:58;101025.28;;;24.79;51.37
78123;BME280;67376;44.802;10.332;2023-06-04T03:29:24;101021.72;;;24.79;50.83
78123;BME280;67376;44.802;10.332;2023-06-04T03:31:49;101024.72;;;24.77;50.34
78123;BME280;67376;44.802;10.332;2023-06-04T03:34:14;101025.53;;;24.78;50.64
78123;BME280;67376;44.802;10.332;2023-06-04T03:36:40;101019.25;;;24.77;49.96
78123;BME280;67376;44.802;10.332;2023-06-04T03:39:05;101019.25;;;24.77;50.86
78123;BME280;67376;44.802;10.332;2023-06-04T03:41:30;101021.97;;;24.77;50.63
78123;BME280;67376;44.802;10.332;2023-06-04T03:43:56;101022.25;;;24.76;50.15
78123;BME280;67376;44.802;10.332;2023-06-04T03:46:21;101031.25;;;24.76;50.62
78123;BME280;67376;44.802;10.332;2023-06-04T03:48:47;101035.06;;;24.75;50.19
78123;BME280;67376;44.802;10.332;2023-06-04T03:51:12;101040.53;;;24.75;50.36
78123;BME280;67376;44.802;10.332;2023-06-04T03:53:37;101035.06;;;24.75;50.00
78123;BME280;67376;44.802;10.332;2023-06-04T03:56:03;101035.06;;;24.75;49.94
78123;BME280;67376;44.802;10.332;2023-06-04T03:58:28;101044.09;;;24.76;49.57
78123;BME280;67376;44.802;10.332;2023-06-04T04:00:54;101036.16;;;24.74;50.21
78123;BME280;67376;44.802;10.332;2023-06-04T04:03:19;101042.44;;;24.75;49.28
78123;BME280;67376;44.802;10.332;2023-06-04T04:05:45;101043.53;;;24.74;50.09
78123;BME280;67376;44.802;10.332;2023-06-04T04:08:10;101056.09;;;24.75;49.42
78123;BME280;67376;44.802;10.332;2023-06-04T04:10:36;101055.25;;;24.74;49.42
78123;BME280;67376;44.802;10.332;2023-06-04T04:13:01;101057.16;;;24.74;49.18
78123;BME280;67376;44.802;10.332;2023-06-04T04:15:26;101058.00;;;24.74;50.02
78123;BME280;67376;44.802;10.332;2023-06-04T04:17:52;101057.44;;;24.72;49.76
78123;BME280;67376;44.802;10.332;2023-06-04T04:20:17;101056.59;;;24.72;49.12
78123;BME280;67376;44.802;10.332;2023-06-04T04:22:43;101055.53;;;24.73;49.30
78123;BME280;67376;44.802;10.332;2023-06-04T04:25:09;101053.88;;;24.72;50.21
78123;BME280;67376;44.802;10.332;2023-06-04T04:27:34;101056.59;;;24.72;49.82
78123;BME280;67376;44.802;10.332;2023-06-04T04:30:05;101060.41;;;24.71;49.48
78123;BME280;67376;44.802;10.332;2023-06-04T04:32:30;101060.41;;;24.71;49.63
78123;BME280;67376;44.802;10.332;2023-06-04T04:34:56;101062.06;;;24.72;49.10
78123;BME280;67376;44.802;10.332;2023-06-04T04:37:22;101061.25;;;24.71;49.93
78123;BME280;67376;44.802;10.332;2023-06-04T04:39:48;101058.50;;;24.71;49.22
78123;BME280;67376;44.802;10.332;2023-06-04T04:42:17;101059.59;;;24.70;50.00
78123;BME280;67376;44.802;10.332;2023-06-04T04:44:42;101064.78;;;24.72;49.45
78123;BME280;67376;44.802;10.332;2023-06-04T04:47:13;101062.06;;;24.72;50.43
78123;BME280;67376;44.802;10.332;2023-06-04T04:49:38;101062.31;;;24.70;50.17
78123;BME280;67376;44.802;10.332;2023-06-04T04:52:03;101057.69;;;24.71;50.26
78123;BME280;67376;44.802;10.332;2023-06-04T04:54:29;101065.88;;;24.71;49.60
78123;BME280;67376;44.802;10.332;2023-06-04T04:56:54;101066.69;;;24.71;49.66
78123;BME280;67376;44.802;10.332;2023-06-04T04:59:19;101067.78;;;24.70;50.38
78123;BME280;67376;44.802;10.332;2023-06-04T05:01:45;101060.94;;;24.67;50.89
78123;BME280;67376;44.802;10.332;2023-06-04T05:04:10;101070.78;;;24.68;50.09
78123;BME280;67376;44.802;10.332;2023-06-04T05:06:37;101071.84;;;24.67;51.11
78123;BME280;67376;44.802;10.332;2023-06-04T05:09:02;101062.00;;;24.66;50.86
78123;BME280;67376;44.802;10.332;2023-06-04T05:11:29;101065.56;;;24.67;50.29
78123;BME280;67376;44.802;10.332;2023-06-04T05:13:54;101068.28;;;24.67;51.05
78123;BME280;67376;44.802;10.332;2023-06-04T05:16:20;101070.19;;;24.66;51.26
78123;BME280;67376;44.802;10.332;2023-06-04T05:18:47;101080.28;;;24.66;50.53
78123;BME280;67376;44.802;10.332;2023-06-04T05:21:16;101074.84;;;24.66;51.31
78123;BME280;67376;44.802;10.332;2023-06-04T05:23:42;101071.53;;;24.64;50.75
78123;BME280;67376;44.802;10.332;2023-06-04T05:26:09;101082.19;;;24.65;51.46
78123;BME280;67376;44.802;10.332;2023-06-04T05:28:34;101072.09;;;24.66;50.78
78123;BME280;67376;44.802;10.332;2023-06-04T05:31:00;101085.75;;;24.66;50.63
78123;BME280;67376;44.802;10.332;2023-06-04T05:33:26;101079.22;;;24.67;50.85
78123;BME280;67376;44.802;10.332;2023-06-04T05:35:52;101078.13;;;24.68;51.08
78123;BME280;67376;44.802;10.332;2023-06-04T05:38:22;101075.41;;;24.68;50.25
78123;BME280;67376;44.802;10.332;2023-06-04T05:40:53;101081.94;;;24.67;51.19
78123;BME280;67376;44.802;10.332;2023-06-04T05:43:20;101069.38;;;24.66;50.31
78123;BME280;67376;44.802;10.332;2023-06-04T05:45:45;101075.66;;;24.66;50.96
78123;BME280;67376;44.802;10.332;2023-06-04T05:48:11;101075.66;;;24.66;50.95
78123;BME280;67376;44.802;10.332;2023-06-04T05:50:37;101080.03;;;24.67;50.25
78123;BME280;67376;44.802;10.332;2023-06-04T05:53:02;101081.94;;;24.67;50.78
78123;BME280;67376;44.802;10.332;2023-06-04T05:55:27;101072.94;;;24.66;49.63
78123;BME280;67376;44.802;10.332;2023-06-04T05:57:54;101072.94;;;24.66;49.67
78123;BME280;67376;44.802;10.332;2023-06-04T06:00:20;101076.50;;;24.67;49.72
78123;BME280;67376;44.802;10.332;2023-06-04T06:02:47;101070.78;;;24.68;49.96
78123;BME280;67376;44.802;10.332;2023-06-04T06:05:15;101071.84;;;24.67;49.79
78123;BME280;67376;44.802;10.332;2023-06-04T06:07:41;101076.50;;;24.67;50.65
78123;BME280;67376;44.802;10.332;2023-06-04T06:10:07;101077.56;;;24.66;50.05
78123;BME280;67376;44.802;10.332;2023-06-04T06:12:33;101078.13;;;24.68;50.32
78123;BME280;67376;44.802;10.332;2023-06-04T06:14:59;101087.16;;;24.68;50.43
78123;BME280;67376;44.802;10.332;2023-06-04T06:17:24;101082.78;;;24.67;50.27
78123;BME280;67376;44.802;10.332;2023-06-04T06:19:51;101080.88;;;24.68;49.46
78123;BME280;67376;44.802;10.332;2023-06-04T06:22:17;101081.69;;;24.68;50.07
78123;BME280;67376;44.802;10.332;2023-06-04T06:24:42;101078.97;;;24.68;49.72
78123;BME280;67376;44.802;10.332;2023-06-04T06:27:08;101088.81;;;24.69;49.66
78123;BME280;67376;44.802;10.332;2023-06-04T06:29:33;101089.88;;;24.68;50.29
78123;BME280;67376;44.802;10.332;2023-06-04T06:31:59;101085.25;;;24.69;49.93
78123;BME280;67376;44.802;10.332;2023-06-04T06:34:24;101090.19;;;24.72;49.80
78123;BME280;67376;44.802;10.332;2023-06-04T06:36:50;101089.38;;;24.72;49.68
78123;BME280;67376;44.802;10.332;2023-06-04T06:39:15;101092.09;;;24.72;50.66
78123;BME280;67376;44.802;10.332;2023-06-04T06:41:41;101096.16;;;24.69;50.33
78123;BME280;67376;44.802;10.332;2023-06-04T06:44:07;101094.00;;;24.71;49.66
78123;BME280;67376;44.802;10.332;2023-06-04T06:46:32;101094.00;;;24.71;50.43
78123;BME280;67376;44.802;10.332;2023-06-04T06:48:58;101099.22;;;24.73;50.44
78123;BME280;67376;44.802;10.332;2023-06-04T06:51:23;101101.13;;;24.72;50.32
78123;BME280;67376;44.802;10.332;2023-06-04T06:53:49;101099.22;;;24.73;49.64
78123;BME280;67376;44.802;10.332;2023-06-04T06:56:18;101106.31;;;24.74;49.97
78123;BME280;67376;44.802;10.332;2023-06-04T06:58:44;101114.53;;;24.74;49.91
78123;BME280;67376;44.802;10.332;2023-06-04T07:01:09;101114.53;;;24.74;50.44
78123;BME280;67376;44.802;10.332;2023-06-04T07:03:35;101124.38;;;24.75;50.07
78123;BME280;67376;44.802;10.332;2023-06-04T07:06:01;101129.56;;;24.76;49.98
78123;BME280;67376;44.802;10.332;2023-06-04T07:08:26;101129.56;;;24.76;50.05
78123;BME280;67376;44.802;10.332;2023-06-04T07:10:52;101130.66;;;24.75;51.12
78123;BME280;67376;44.802;10.332;2023-06-04T07:13:17;101129.56;;;24.76;50.63
78123;BME280;67376;44.802;10.332;2023-06-04T07:15:42;101134.22;;;24.76;50.40
78123;BME280;67376;44.802;10.332;2023-06-04T07:18:08;101136.09;;;24.75;51.42
78123;BME280;67376;44.802;10.332;2023-06-04T07:20:33;101135.28;;;24.75;50.51
78123;BME280;67376;44.802;10.332;2023-06-04T07:22:59;101136.09;;;24.75;51.55
78123;BME280;67376;44.802;10.332;2023-06-04T07:25:24;101132.31;;;24.76;51.38
78123;BME280;67376;44.802;10.332;2023-06-04T07:27:50;101136.94;;;24.76;50.75
78123;BME280;67376;44.802;10.332;2023-06-04T07:30:16;101134.47;;;24.74;50.96
78123;BME280;67376;44.802;10.332;2023-06-04T07:32:46;101134.22;;;24.76;50.68
78123;BME280;67376;44.802;10.332;2023-06-04T07:35:11;101133.94;;;24.77;51.25
78123;BME280;67376;44.802;10.332;2023-06-04T07:37:37;101135.03;;;24.76;50.70
78123;BME280;67376;44.802;10.332;2023-06-04T07:40:03;101144.88;;;24.77;51.39
78123;BME280;67376;44.802;10.332;2023-06-04T07:42:29;101153.63;;;24.79;51.30
78123;BME280;67376;44.802;10.332;2023-06-04T07:44:54;101156.94;;;24.81;51.08
78123;BME280;67376;44.802;10.332;2023-06-04T07:47:19;101155.28;;;24.80;50.91
78123;BME280;67376;44.802;10.332;2023-06-04T07:49:45;101154.72;;;24.78;50.75
78123;BME280;67376;44.802;10.332;2023-06-04T07:52:11;101150.34;;;24.77;51.11
78123;BME280;67376;44.802;10.332;2023-06-04T07:54:37;101159.59;;;24.76;51.68
78123;BME280;67376;44.802;10.332;2023-06-04T07:57:02;101157.97;;;24.75;51.37
78123;BME280;67376;44.802;10.332;2023-06-04T07:59:28;101152.50;;;24.75;50.99
78123;BME280;67376;44.802;10.332;2023-06-04T08:01:54;101154.16;;;24.76;51.38
78123;BME280;67376;44.802;10.332;2023-06-04T08:04:20;101145.13;;;24.76;51.34
78123;BME280;67376;44.802;10.332;2023-06-04T08:06:45;101144.31;;;24.75;52.21
78123;BME280;67376;44.802;10.332;2023-06-04T08:09:11;101146.78;;;24.77;51.49
78123;BME280;67376;44.802;10.332;2023-06-04T08:11:38;101140.25;;;24.78;52.18
78123;BME280;67376;44.802;10.332;2023-06-04T08:14:04;101143.78;;;24.78;51.99
78123;BME280;67376;44.802;10.332;2023-06-04T08:16:31;101145.69;;;24.78;51.75
78123;BME280;67376;44.802;10.332;2023-06-04T08:18:56;101146.00;;;24.81;50.63
78123;BME280;67376;44.802;10.332;2023-06-04T08:21:25;101160.25;;;24.83;50.55
78123;BME280;67376;44.802;10.332;2023-06-04T08:23:51;101151.75;;;24.85;51.46
78123;BME280;67376;44.802;10.332;2023-06-04T08:26:16;101154.78;;;24.83;50.59
78123;BME280;67376;44.802;10.332;2023-06-04T08:28:42;101142.50;;;24.86;50.98
78123;BME280;67376;44.802;10.332;2023-06-04T08:31:08;101149.59;;;24.87;51.29
78123;BME280;67376;44.802;10.332;2023-06-04T08:33:33;101144.13;;;24.87;51.27
78123;BME280;67376;44.802;10.332;2023-06-04T08:35:58;101146.88;;;24.87;50.32
78123;BME280;67376;44.802;10.332;2023-06-04T08:38:24;101141.16;;;24.88;50.95
78123;BME280;67376;44.802;10.332;2023-06-04T08:40:52;101147.19;;;24.90;50.25
78123;BME280;67376;44.802;10.332;2023-06-04T08:43:18;101142.53;;;24.91;50.67
78123;BME280;67376;44.802;10.332;2023-06-04T08:45:49;101137.91;;;24.91;51.02
78123;BME280;67376;44.802;10.332;2023-06-04T08:48:16;101138.47;;;24.93;50.57
78123;BME280;67376;44.802;10.332;2023-06-04T08:50:45;101139.56;;;24.92;50.64
78123;BME280;67376;44.802;10.332;2023-06-04T08:53:15;101137.66;;;24.93;50.49
78123;BME280;67376;44.802;10.332;2023-06-04T08:55:40;101146.34;;;24.90;50.17
78123;BME280;67376;44.802;10.332;2023-06-04T08:58:07;101141.97;;;24.89;50.28
78123;BME280;67376;44.802;10.332;2023-06-04T09:00:35;101139.25;;;24.89;50.84
78123;BME280;67376;44.802;10.332;2023-06-04T09:03:02;101145.53;;;24.89;51.17
78123;BME280;67376;44.802;10.332;2023-06-04T09:05:30;101145.53;;;24.89;50.84
78123;BME280;67376;44.802;10.332;2023-06-04T09:08:00;101147.69;;;24.87;50.74
78123;BME280;67376;44.802;10.332;2023-06-04T09:10:26;101143.06;;;24.88;50.65
78123;BME280;67376;44.802;10.332;2023-06-04T09:12:57;101149.34;;;24.88;51.41
78123;BME280;67376;44.802;10.332;2023-06-04T09:15:23;101150.44;;;24.87;51.23
78123;BME280;67376;44.802;10.332;2023-06-04T09:17:48;101140.06;;;24.89;50.92
78123;BME280;67376;44.802;10.332;2023-06-04T09:20:20;101139.50;;;24.87;50.44
78123;BME280;67376;44.802;10.332;2023-06-04T09:22:46;101146.88;;;24.87;50.52
78123;BME280;67376;44.802;10.332;2023-06-04T09:25:22;101140.31;;;24.88;50.96
78123;BME280;67376;44.802;10.332;2023-06-04T09:27:49;101141.16;;;24.88;50.71
78123;BME280;67376;44.802;10.332;2023-06-04T09:30:15;101134.03;;;24.87;51.04
78123;BME280;67376;44.802;10.332;2023-06-04T09:32:41;101136.25;;;24.90;50.25
78123;BME280;67376;44.802;10.332;2023-06-04T09:35:14;101131.34;;;24.92;50.25
78123;BME280;67376;44.802;10.332;2023-06-04T09:37:51;101132.19;;;24.93;50.97
78123;BME280;67376;44.802;10.332;2023-06-04T09:40:17;101128.38;;;24.94;50.96
78123;BME280;67376;44.802;10.332;2023-06-04T09:42:47;101121.25;;;24.93;50.47
78123;BME280;67376;44.802;10.332;2023-06-04T09:45:33;101133.28;;;24.92;51.43
78123;BME280;67376;44.802;10.332;2023-06-04T09:48:00;101132.19;;;24.93;51.19
78123;BME280;67376;44.802;10.332;2023-06-04T09:50:34;101134.09;;;24.92;50.47
78123;BME280;67376;44.802;10.332;2023-06-04T09:53:18;101133.53;;;24.90;50.56
78123;BME280;67376;44.802;10.332;2023-06-04T09:55:57;101129.44;;;24.93;51.42
78123;BME280;67376;44.802;10.332;2023-06-04T09:58:25;101129.44;;;24.93;51.21
78123;BME280;67376;44.802;10.332;2023-06-04T10:00:52;101131.09;;;24.94;50.56
78123;BME280;67376;44.802;10.332;2023-06-04T10:03:20;101129.19;;;24.94;50.79
78123;BME280;67376;44.802;10.332;2023-06-04T10:05:49;101130.84;;;24.95;51.44
78123;BME280;67376;44.802;10.332;2023-06-04T10:08:17;101128.97;;;24.96;50.34
78123;BME280;67376;44.802;10.332;2023-06-04T10:10:42;101122.44;;;24.97;50.77
78123;BME280;67376;44.802;10.332;2023-06-04T10:13:19;101119.44;;;24.98;50.51
78123;BME280;67376;44.802;10.332;2023-06-04T10:15:48;101108.78;;;24.97;50.83
78123;BME280;67376;44.802;10.332;2023-06-04T10:18:15;101110.41;;;24.98;51.24
78123;BME280;67376;44.802;10.332;2023-06-04T10:20:41;101111.25;;;24.98;50.57
78123;BME280;67376;44.802;10.332;2023-06-04T10:23:07;101114.53;;;25.00;51.06
78123;BME280;67376;44.802;10.332;2023-06-04T10:25:35;101112.91;;;24.99;50.40
78123;BME280;67376;44.802;10.332;2023-06-04T10:28:04;101112.31;;;24.97;50.83
78123;BME280;67376;44.802;10.332;2023-06-04T10:30:30;101108.78;;;24.97;51.00
78123;BME280;67376;44.802;10.332;2023-06-04T10:32:56;101109.84;;;24.96;51.64
78123;BME280;67376;44.802;10.332;2023-06-04T10:35:35;101110.69;;;24.96;51.45
78123;BME280;67376;44.802;10.332;2023-06-04T10:38:19;101115.06;;;24.97;51.29
78123;BME280;67376;44.802;10.332;2023-06-04T10:40:47;101110.69;;;24.96;50.76
78123;BME280;67376;44.802;10.332;2023-06-04T10:43:13;101109.34;;;24.99;51.02
78123;BME280;67376;44.802;10.332;2023-06-04T10:45:40;101106.59;;;24.99;50.84
78123;BME280;67376;44.802;10.332;2023-06-04T10:48:07;101108.50;;;24.98;51.30
78123;BME280;67376;44.802;10.332;2023-06-04T10:50:33;101113.16;;;24.98;50.73
78123;BME280;67376;44.802;10.332;2023-06-04T10:53:00;101108.50;;;24.98;50.65
78123;BME280;67376;44.802;10.332;2023-06-04T10:55:29;101112.91;;;24.99;51.12
78123;BME280;67376;44.802;10.332;2023-06-04T10:58:00;101117.53;;;24.99;50.84
78123;BME280;67376;44.802;10.332;2023-06-04T11:00:55;101102.22;;;24.98;51.31
78123;BME280;67376;44.802;10.332;2023-06-04T11:03:20;101100.31;;;24.98;51.32
78123;BME280;67376;44.802;10.332;2023-06-04T11:05:47;101098.66;;;24.97;51.04
78123;BME280;67376;44.802;10.332;2023-06-04T11:08:13;101096.75;;;24.98;50.61
78123;BME280;67376;44.802;10.332;2023-06-04T11:10:41;101101.13;;;24.99;51.49
78123;BME280;67376;44.802;10.332;2023-06-04T11:13:07;101096.50;;;24.99;50.98
78123;BME280;67376;44.802;10.332;2023-06-04T11:15:46;101093.19;;;24.97;51.81
78123;BME280;67376;44.802;10.332;2023-06-04T11:18:18;101094.03;;;24.98;50.59
78123;BME280;67376;44.802;10.332;2023-06-04T11:20:44;101091.56;;;24.96;50.98
78123;BME280;67376;44.802;10.332;2023-06-04T11:23:12;101092.38;;;24.97;51.07
78123;BME280;67376;44.802;10.332;2023-06-04T11:25:37;101092.38;;;24.97;50.74
78123;BME280;67376;44.802;10.332;2023-06-04T11:28:03;101088.00;;;24.96;51.41
78123;BME280;67376;44.802;10.332;2023-06-04T11:30:29;101096.19;;;24.96;51.72
78123;BME280;67376;44.802;10.332;2023-06-04T11:33:05;101083.09;;;24.98;51.64
78123;BME280;67376;44.802;10.332;2023-06-04T11:35:31;101076.00;;;24.97;51.08
78123;BME280;67376;44.802;10.332;2023-06-04T11:38:05;101066.72;;;24.98;51.40
78123;BME280;67376;44.802;10.332;2023-06-04T11:40:30;101076.81;;;24.97;51.86
78123;BME280;67376;44.802;10.332;2023-06-04T11:42:55;101067.78;;;24.97;51.97
78123;BME280;67376;44.802;10.332;2023-06-04T11:45:21;101066.63;;;24.93;51.64
78123;BME280;67376;44.802;10.332;2023-06-04T11:47:55;101063.97;;;24.98;50.74
78123;BME280;67376;44.802;10.332;2023-06-04T11:50:27;101059.59;;;24.97;50.97
78123;BME280;67376;44.802;10.332;2023-06-04T11:52:53;101051.13;;;24.98;51.33
78123;BME280;67376;44.802;10.332;2023-06-04T11:55:19;101055.22;;;24.96;51.45
78123;BME280;67376;44.802;10.332;2023-06-04T11:57:49;101054.97;;;24.97;50.88
78123;BME280;67376;44.802;10.332;2023-06-04T12:00:15;101040.47;;;24.97;51.66
78123;BME280;67376;44.802;10.332;2023-06-04T12:02:55;101043.44;;;24.95;51.22
78123;BME280;67376;44.802;10.332;2023-06-04T12:05:29;101036.91;;;24.96;51.29
78123;BME280;67376;44.802;10.332;2023-06-04T12:08:08;101038.56;;;24.97;50.99
78123;BME280;67376;44.802;10.332;2023-06-04T12:10:38;101035.84;;;24.97;51.94
78123;BME280;67376;44.802;10.332;2023-06-04T12:13:04;101033.38;;;24.96;51.36
78123;BME280;67376;44.802;10.332;2023-06-04T12:15:30;101030.38;;;24.97;50.88
78123;BME280;67376;44.802;10.332;2023-06-04T12:17:55;101032.28;;;24.97;51.13
78123;BME280;67376;44.802;10.332;2023-06-04T12:20:39;101026.81;;;24.97;51.84
78123;BME280;67376;44.802;10.332;2023-06-04T12:23:06;101033.38;;;24.96;51.06
78123;BME280;67376;44.802;10.332;2023-06-04T12:25:33;101033.09;;;24.97;50.95
78123;BME280;67376;44.802;10.332;2023-06-04T12:27:59;101026.81;;;24.97;51.49
78123;BME280;67376;44.802;10.332;2023-06-04T12:30:38;101032.28;;;24.97;51.97
78123;BME280;67376;44.802;10.332;2023-06-04T12:33:04;101032.50;;;24.95;51.09
78123;BME280;67376;44.802;10.332;2023-06-04T12:35:29;101021.34;;;24.97;51.94
78123;BME280;67376;44.802;10.332;2023-06-04T12:37:55;101024.09;;;24.97;51.61
78123;BME280;67376;44.802;10.332;2023-06-04T12:40:20;101024.91;;;24.97;50.85
78123;BME280;67376;44.802;10.332;2023-06-04T12:42:45;101016.72;;;24.97;51.41
78123;BME280;67376;44.802;10.332;2023-06-04T12:45:12;101015.06;;;24.96;51.29